Nekoosa, WI

8:36 AM CST on December 03, 2016 (GMT -0600)
Town of Saratoga | | Change Station

Elev 972 ft 44.31 °N, 89.87 °W | Updated 7 days ago

Cloudy
Cloudy
33 °F
Feels Like 28 °F
N
6
Wind Variable Wind from WNW
Gusts mph

Today
High -- | Low -- °F
--% Chance of Precip.
Yesterday
High -- | Low -- °F
Precip. -- in
Pressure 30.36 in
Visibility 10.0 miles
Clouds Few 1900 ft
Overcast 2600 ft
Windchill 28 °F
Dew Point 23 °F
Humidity 66%
Rainfall in
Snow Depth Not available.
7:17 AM 4:20 PM
Waxing Crescent, 15% visible
METAR KISW 031354Z AUTO 27004KT 10SM FEW019 OVC026 M01/M05 A3032 RMK AO2 SLP280 T10111050
Pressure 30.36 in
Visibility 10.0 miles
Clouds Few 1900 ft
Overcast 2600 ft
Windchill 28 °F
Dew Point 23 °F
Humidity 66%
Rainfall in
Snow Depth Not available.
7:17 AM 4:20 PM
Waxing Crescent, 15% visible
METAR KISW 031354Z AUTO 27004KT 10SM FEW019 OVC026 M01/M05 A3032 RMK AO2 SLP280 T10111050

10-Day Weather Forecast

Almanac

Astronomy

Dec. 03, 2016 Rise Set
Actual Time
Civil Twilight
Nautical Twilight
Astronomical Twilight
Moon
Length of Visible Light
Length of Day
Tomorrow will be .
, % of the Moon is Illuminated

Today's Extremes

State Highs State Lows

Community

WunderPhotos

Upload Photos

1,955,446 photos uploaded!

WunderBlog® & News

Nearby

Air Quality

  Air Quality AQ Index Pollutant
Not available.

Snow Depth

Station Depth Elevation

Earthquake Activity

City Distance Mag. Time & Date
Minimum magnitude displayed is 2.5.

Coastal Water Temperatures

Place Temperature

Stations

Nearby Weather Stations

Station Location Temp. Windchill Dew Point Humidity Wind Precip. Elev Updated Type
                   

Watches & Warnings

There are currently no watches in effect.